Time;durP1;ratioP1;P1;durP2;ratioP2;P2;SDS_P1;SDS_P2;PMS_P1;PMS_P2;Temp;Humidity;BMP_temperature;BMP_pressure;BME280_temperature;BME280_humidity;BME280_pressure;Samples;Min_cycle;Max_cycle;Signal;HPM_P1;HPM_P2
2022/07/04 00:00:24;;;;;;;7.20;3.38;;;12.50;99.90;;;;;;5146530;27;20409;-58
2022/07/04 00:02:50;;;;;;;3.55;3.00;;;12.50;99.90;;;;;;5151576;27;20030;-58
2022/07/04 00:05:17;;;;;;;5.95;3.53;;;12.40;99.90;;;;;;5149660;27;20038;-57
2022/07/04 00:07:45;;;;;;;7.22;3.22;;;12.40;99.90;;;;;;5153609;27;20091;-59
2022/07/04 00:10:13;;;;;;;5.63;3.30;;;12.50;99.90;;;;;;5153033;27;20042;-58
2022/07/04 00:12:39;;;;;;;6.72;3.38;;;12.40;99.90;;;;;;5144469;27;20103;-58
2022/07/04 00:15:06;;;;;;;7.10;4.47;;;12.40;99.90;;;;;;5148399;27;20047;-58
2022/07/04 00:17:32;;;;;;;5.55;3.85;;;12.40;99.90;;;;;;5153904;27;20050;-58
2022/07/04 00:19:58;;;;;;;6.18;3.42;;;12.30;99.90;;;;;;5149334;27;20038;-58
2022/07/04 00:22:23;;;;;;;5.30;3.70;;;12.30;99.90;;;;;;5153882;27;20043;-57
2022/07/04 00:24:49;;;;;;;4.28;3.33;;;12.30;99.90;;;;;;5152319;27;20034;-58
2022/07/04 00:27:15;;;;;;;4.97;3.60;;;12.30;99.90;;;;;;5152148;27;20041;-58
2022/07/04 00:29:40;;;;;;;5.13;3.60;;;12.30;99.90;;;;;;5132370;27;20037;-58
2022/07/04 00:32:06;;;;;;;3.33;2.97;;;12.30;99.90;;;;;;5152739;27;20085;-57
2022/07/04 00:34:32;;;;;;;5.55;3.20;;;12.30;99.90;;;;;;5150733;27;20069;-59
2022/07/04 00:36:58;;;;;;;5.65;3.22;;;12.30;99.90;;;;;;5150183;27;20035;-57
2022/07/04 00:39:23;;;;;;;8.57;3.70;;;12.30;99.90;;;;;;5153794;27;20039;-58
2022/07/04 00:41:49;;;;;;;5.88;4.00;;;12.20;99.90;;;;;;5151075;27;20777;-57
2022/07/04 00:44:17;;;;;;;6.82;3.60;;;12.30;99.90;;;;;;5143884;27;20031;-59
2022/07/04 00:46:45;;;;;;;5.72;3.38;;;12.30;99.90;;;;;;5148012;27;20083;-59
2022/07/04 00:49:12;;;;;;;6.90;3.67;;;12.30;99.90;;;;;;5136379;27;20040;-57
2022/07/04 00:51:39;;;;;;;4.57;3.95;;;12.20;99.90;;;;;;5150690;27;20038;-58
2022/07/04 00:54:07;;;;;;;5.95;3.60;;;12.20;99.90;;;;;;5151885;27;20051;-58
2022/07/04 00:56:36;;;;;;;5.35;3.45;;;12.20;99.90;;;;;;5150678;27;20034;-58
2022/07/04 00:59:02;;;;;;;5.13;3.70;;;12.20;99.90;;;;;;5151066;27;20038;-59
2022/07/04 01:01:27;;;;;;;7.63;3.67;;;12.30;99.90;;;;;;5150467;27;20030;-58
2022/07/04 01:03:53;;;;;;;5.20;4.30;;;12.30;99.90;;;;;;5151443;27;20554;-57
2022/07/04 01:06:20;;;;;;;5.13;3.92;;;12.30;99.90;;;;;;5149404;27;20094;-59
2022/07/04 01:08:46;;;;;;;5.13;3.83;;;12.30;99.90;;;;;;5153493;27;20085;-59
2022/07/04 01:11:12;;;;;;;6.18;4.03;;;12.20;99.90;;;;;;5147654;27;20043;-58
2022/07/04 01:13:40;;;;;;;5.97;4.20;;;12.30;99.90;;;;;;5150981;27;20030;-58
2022/07/04 01:16:07;;;;;;;6.03;4.60;;;12.30;99.90;;;;;;5140975;27;20118;-59
2022/07/04 01:18:32;;;;;;;8.50;4.63;;;12.20;99.90;;;;;;5149990;27;20069;-58
2022/07/04 01:20:58;;;;;;;9.10;4.38;;;12.20;99.90;;;;;;5150968;27;20066;-59
2022/07/04 01:23:24;;;;;;;5.07;3.70;;;12.10;99.90;;;;;;5152329;27;20034;-58
2022/07/04 01:25:50;;;;;;;7.75;4.38;;;12.00;99.90;;;;;;5151275;27;20026;-57
2022/07/04 01:28:19;;;;;;;6.82;4.63;;;12.00;99.90;;;;;;5152213;27;20126;-57
2022/07/04 01:30:45;;;;;;;6.68;4.40;;;12.00;99.90;;;;;;5150012;27;20034;-58
2022/07/04 01:33:11;;;;;;;7.07;4.70;;;12.00;99.90;;;;;;5143701;27;20069;-59
2022/07/04 01:35:36;;;;;;;8.45;4.50;;;12.00;99.90;;;;;;5147402;27;20031;-58
2022/07/04 01:38:02;;;;;;;8.27;4.30;;;12.00;99.90;;;;;;5152512;27;20062;-58
2022/07/04 01:40:28;;;;;;;8.32;4.45;;;12.00;99.90;;;;;;5149635;27;20043;-61
2022/07/04 01:42:54;;;;;;;7.22;4.60;;;11.90;99.90;;;;;;5152247;27;20045;-60
2022/07/04 01:45:19;;;;;;;8.23;4.40;;;11.90;99.90;;;;;;5146288;27;20467;-60
2022/07/04 01:47:45;;;;;;;7.45;5.18;;;11.90;99.90;;;;;;5144784;27;20035;-60
2022/07/04 01:50:14;;;;;;;9.48;4.85;;;12.00;99.90;;;;;;5143935;27;20135;-60
2022/07/04 01:52:40;;;;;;;6.65;4.80;;;12.00;99.90;;;;;;5154903;27;20041;-61
2022/07/04 01:55:07;;;;;;;7.25;5.32;;;11.90;99.90;;;;;;5147784;27;20050;-60
2022/07/04 01:57:33;;;;;;;7.60;5.10;;;11.90;99.90;;;;;;5150252;27;20469;-61
2022/07/04 02:02:43;;;;;;;8.80;5.00;;;11.90;99.90;;;;;;5141260;27;20562;-61
2022/07/04 02:05:08;;;;;;;6.97;5.50;;;11.90;99.90;;;;;;5143178;27;20171;-60
2022/07/04 02:07:34;;;;;;;9.20;5.57;;;11.80;99.90;;;;;;5153004;27;20030;-60
2022/07/04 02:09:59;;;;;;;7.80;5.07;;;11.80;99.90;;;;;;5128648;27;20057;-60
2022/07/04 02:15:10;;;;;;;8.88;5.60;;;11.80;99.90;;;;;;5147703;27;20513;-61
2022/07/04 02:17:35;;;;;;;7.45;5.35;;;11.70;99.90;;;;;;5149245;27;20030;-60
2022/07/04 02:20:02;;;;;;;6.65;5.18;;;11.70;99.90;;;;;;5143773;27;20431;-62
2022/07/04 02:22:27;;;;;;;8.10;4.78;;;11.70;99.90;;;;;;5151789;27;20046;-61
2022/07/04 02:24:53;;;;;;;8.52;5.50;;;11.70;99.90;;;;;;5150379;27;20474;-61
2022/07/04 02:27:23;;;;;;;9.32;5.65;;;11.70;99.90;;;;;;5152270;27;20118;-60
2022/07/04 02:29:49;;;;;;;8.05;5.28;;;11.80;99.90;;;;;;5147356;27;20054;-61
2022/07/04 02:32:15;;;;;;;11.98;6.10;;;11.90;99.90;;;;;;5141028;27;20042;-60
2022/07/04 02:34:41;;;;;;;7.60;5.55;;;11.80;99.90;;;;;;5144157;27;20042;-60
2022/07/04 02:37:06;;;;;;;9.40;5.72;;;11.80;99.90;;;;;;5147549;27;20175;-60
2022/07/04 02:39:32;;;;;;;7.82;5.45;;;11.80;99.90;;;;;;5148651;27;20050;-61
2022/07/04 02:41:58;;;;;;;9.00;5.32;;;11.70;99.90;;;;;;5145881;27;20538;-60
2022/07/04 02:44:23;;;;;;;8.32;4.78;;;11.60;99.90;;;;;;5146362;27;20087;-61
2022/07/04 02:46:49;;;;;;;6.72;5.22;;;11.60;99.90;;;;;;5150677;27;20389;-62
2022/07/04 02:49:15;;;;;;;10.13;5.63;;;11.50;99.90;;;;;;5149610;27;20053;-60
2022/07/04 02:51:46;;;;;;;8.90;5.63;;;11.50;99.90;;;;;;5148264;27;20039;-60
2022/07/04 02:54:12;;;;;;;10.00;5.63;;;11.50;99.90;;;;;;5149134;27;20043;-62
2022/07/04 02:56:37;;;;;;;10.27;5.75;;;11.40;99.90;;;;;;5150635;27;20047;-62
2022/07/04 02:59:03;;;;;;;13.27;6.43;;;11.40;99.90;;;;;;5148549;27;20042;-62
2022/07/04 03:01:29;;;;;;;9.75;5.65;;;11.40;99.90;;;;;;5132273;27;20027;-61
2022/07/04 03:03:54;;;;;;;9.25;5.97;;;11.40;99.90;;;;;;5116948;27;20042;-62
2022/07/04 03:06:20;;;;;;;9.63;6.40;;;11.40;99.90;;;;;;5148448;27;20462;-60
2022/07/04 03:08:45;;;;;;;9.90;6.70;;;11.40;99.90;;;;;;5143983;27;20475;-60
2022/07/04 03:11:11;;;;;;;10.65;6.13;;;11.40;99.90;;;;;;5144368;27;20074;-61
2022/07/04 03:13:39;;;;;;;9.27;7.13;;;11.30;99.90;;;;;;5148499;27;20527;-60
2022/07/04 03:16:05;;;;;;;10.23;7.13;;;11.30;99.90;;;;;;5137576;27;20035;-62
2022/07/04 03:18:31;;;;;;;11.25;8.07;;;11.30;99.90;;;;;;5127940;27;20034;-61
2022/07/04 03:20:57;;;;;;;13.10;8.00;;;11.30;99.90;;;;;;5146166;27;20734;-62
2022/07/04 03:23:22;;;;;;;11.35;7.43;;;11.30;99.90;;;;;;5132004;27;20061;-61
2022/07/04 03:25:48;;;;;;;11.07;8.02;;;11.30;99.90;;;;;;5143917;27;20375;-60
2022/07/04 03:28:14;;;;;;;12.45;8.10;;;11.40;99.90;;;;;;5151703;27;20650;-60
2022/07/04 03:30:39;;;;;;;15.10;8.27;;;11.40;99.90;;;;;;5145151;27;20083;-62
2022/07/04 03:33:05;;;;;;;17.25;8.70;;;11.40;99.90;;;;;;5147524;27;20046;-61
2022/07/04 03:35:31;;;;;;;11.43;8.27;;;11.40;99.90;;;;;;5146393;27;20560;-61
2022/07/04 03:37:59;;;;;;;11.45;7.75;;;11.50;99.90;;;;;;5149457;27;20039;-61
2022/07/04 03:40:28;;;;;;;14.73;8.73;;;11.40;99.90;;;;;;5122991;27;20713;-61
2022/07/04 03:42:53;;;;;;;16.17;9.05;;;11.50;99.90;;;;;;5149496;27;20033;-61
2022/07/04 03:45:22;;;;;;;13.38;8.88;;;11.50;99.90;;;;;;5145185;27;20042;-61
2022/07/04 03:47:48;;;;;;;12.43;8.57;;;11.60;99.90;;;;;;5148319;27;20034;-61
2022/07/04 03:50:13;;;;;;;12.30;8.35;;;11.70;99.90;;;;;;5147633;27;20158;-61
2022/07/04 03:52:39;;;;;;;14.55;9.27;;;11.70;99.90;;;;;;5149419;27;20041;-62
2022/07/04 03:55:05;;;;;;;15.23;8.75;;;11.70;99.90;;;;;;5129924;27;20039;-61
2022/07/04 03:57:30;;;;;;;14.68;8.48;;;11.70;99.90;;;;;;5149268;27;20035;-60
2022/07/04 03:59:56;;;;;;;13.98;8.95;;;11.80;99.90;;;;;;5143365;27;20041;-60
2022/07/04 04:02:21;;;;;;;14.43;9.30;;;11.80;99.90;;;;;;5147413;27;20114;-62
2022/07/04 04:07:31;;;;;;;14.15;10.07;;;12.00;99.90;;;;;;5148191;27;20482;-61
2022/07/04 04:09:57;;;;;;;13.88;9.98;;;12.00;99.90;;;;;;5148751;27;20052;-60
2022/07/04 04:12:22;;;;;;;15.07;10.02;;;12.00;99.90;;;;;;5146985;27;20054;-62
2022/07/04 04:14:48;;;;;;;15.13;9.80;;;12.10;99.90;;;;;;5146787;27;20032;-60
2022/07/04 04:17:13;;;;;;;15.63;9.98;;;12.20;99.90;;;;;;5139984;27;20039;-61
2022/07/04 04:19:39;;;;;;;16.50;9.32;;;12.20;99.90;;;;;;5148031;27;20154;-61
2022/07/04 04:22:05;;;;;;;13.40;9.57;;;12.20;99.90;;;;;;5150906;27;20058;-60
2022/07/04 04:24:30;;;;;;;16.58;10.70;;;12.30;99.90;;;;;;5146125;27;20390;-60
2022/07/04 04:26:58;;;;;;;14.82;10.23;;;12.40;99.90;;;;;;5129981;27;20057;-61
2022/07/04 04:29:24;;;;;;;16.90;11.50;;;12.40;99.90;;;;;;5125024;27;22935;-61
2022/07/04 04:31:50;;;;;;;13.98;10.82;;;12.50;99.90;;;;;;5150491;27;20043;-61
2022/07/04 04:34:15;;;;;;;16.08;11.07;;;12.60;99.90;;;;;;5147101;27;20728;-61
2022/07/04 04:36:41;;;;;;;16.23;10.95;;;12.60;99.90;;;;;;5149454;27;20033;-60
2022/07/04 04:39:06;;;;;;;18.15;11.07;;;12.70;99.90;;;;;;5149476;27;20062;-60
2022/07/04 04:41:32;;;;;;;14.68;10.77;;;12.70;99.90;;;;;;5130170;27;20039;-60
2022/07/04 04:43:58;;;;;;;14.15;10.48;;;12.80;99.90;;;;;;5144067;27;20792;-61
2022/07/04 04:46:23;;;;;;;15.73;11.07;;;12.80;99.90;;;;;;5126388;27;20070;-60
2022/07/04 04:48:49;;;;;;;16.05;10.88;;;12.90;99.90;;;;;;5153795;27;20095;-61
2022/07/04 04:51:14;;;;;;;18.67;11.57;;;13.00;99.90;;;;;;5146964;27;20066;-60
2022/07/04 04:53:40;;;;;;;16.88;11.35;;;13.10;99.90;;;;;;5153316;27;20072;-61
2022/07/04 04:56:05;;;;;;;17.10;10.45;;;13.20;99.90;;;;;;5151498;27;20393;-60
2022/07/04 04:58:31;;;;;;;12.88;10.77;;;13.30;99.90;;;;;;5153825;27;20046;-61
2022/07/04 05:00:56;;;;;;;17.00;11.75;;;13.40;99.90;;;;;;5145813;27;20031;-61
2022/07/04 05:03:22;;;;;;;16.00;11.70;;;13.50;99.90;;;;;;5150685;27;20145;-61
2022/07/04 05:05:51;;;;;;;16.90;11.55;;;13.60;99.90;;;;;;5150381;27;20041;-60
2022/07/04 05:08:16;;;;;;;18.80;11.10;;;13.70;99.90;;;;;;5136948;27;20043;-61
2022/07/04 05:10:42;;;;;;;14.48;10.25;;;13.80;99.90;;;;;;5144315;27;20038;-61
2022/07/04 05:13:07;;;;;;;15.63;11.60;;;13.90;99.90;;;;;;5151740;27;20094;-61
2022/07/04 05:15:33;;;;;;;16.33;11.10;;;14.00;99.90;;;;;;5145082;27;20038;-61
2022/07/04 05:17:59;;;;;;;16.90;12.45;;;14.00;99.90;;;;;;5146437;27;20034;-61
2022/07/04 05:20:24;;;;;;;17.80;12.52;;;14.00;99.90;;;;;;5149826;27;20038;-61
2022/07/04 05:22:50;;;;;;;16.35;12.63;;;14.20;99.90;;;;;;5142819;27;20071;-60
2022/07/04 05:25:16;;;;;;;18.55;12.10;;;14.30;99.90;;;;;;5144035;27;20108;-61
2022/07/04 05:27:41;;;;;;;20.98;13.15;;;14.40;99.90;;;;;;5155165;27;20038;-62
2022/07/04 05:30:08;;;;;;;17.75;12.15;;;14.50;99.90;;;;;;5147959;27;20027;-61
2022/07/04 05:32:33;;;;;;;19.52;11.65;;;14.70;99.90;;;;;;5147834;27;20031;-61
2022/07/04 05:34:59;;;;;;;16.70;12.45;;;14.80;99.90;;;;;;5149459;27;20049;-62
2022/07/04 05:37:25;;;;;;;15.77;11.45;;;15.00;99.90;;;;;;5152479;27;20102;-62
2022/07/04 05:39:51;;;;;;;16.13;11.25;;;15.00;99.90;;;;;;5148997;27;20037;-62
2022/07/04 05:42:17;;;;;;;15.13;11.32;;;15.10;99.90;;;;;;5153220;27;20035;-61
2022/07/04 05:44:42;;;;;;;16.00;10.75;;;15.20;99.90;;;;;;5148477;27;20049;-63
2022/07/04 05:47:08;;;;;;;13.15;10.20;;;15.30;99.90;;;;;;5148496;27;20082;-60
2022/07/04 05:49:34;;;;;;;14.85;9.52;;;15.40;99.90;;;;;;5146895;27;20134;-58
2022/07/04 05:51:59;;;;;;;14.15;9.82;;;15.40;99.90;;;;;;5152519;27;20053;-59
2022/07/04 05:54:25;;;;;;;14.95;10.20;;;15.50;99.90;;;;;;5149375;27;20480;-60
2022/07/04 05:56:51;;;;;;;13.32;9.85;;;15.70;99.90;;;;;;5149528;27;20671;-59
2022/07/04 05:59:16;;;;;;;12.82;9.60;;;15.90;99.90;;;;;;5147395;27;20034;-60
2022/07/04 06:01:42;;;;;;;10.02;8.93;;;16.00;99.90;;;;;;5149415;27;20031;-60
2022/07/04 06:04:08;;;;;;;12.13;7.97;;;16.10;99.90;;;;;;5142293;27;20035;-60
2022/07/04 06:06:33;;;;;;;12.75;9.35;;;16.20;99.90;;;;;;5138186;27;20052;-60
2022/07/04 06:09:00;;;;;;;12.13;7.72;;;16.40;99.90;;;;;;5141010;27;20065;-61
2022/07/04 06:11:25;;;;;;;12.10;8.10;;;16.50;99.90;;;;;;5144389;27;20122;-59
2022/07/04 06:13:51;;;;;;;9.38;7.13;;;16.60;99.90;;;;;;5097869;27;20535;-60
2022/07/04 06:16:16;;;;;;;9.07;6.97;;;16.80;99.90;;;;;;5151372;27;20039;-60
2022/07/04 06:18:43;;;;;;;9.02;6.90;;;16.90;99.90;;;;;;5149312;27;20023;-60
2022/07/04 06:21:09;;;;;;;8.02;6.43;;;17.20;99.90;;;;;;5124176;27;20151;-59
2022/07/04 06:23:34;;;;;;;9.82;6.40;;;17.20;99.90;;;;;;5155391;27;20031;-60
2022/07/04 06:26:00;;;;;;;10.57;6.00;;;17.30;99.90;;;;;;5130299;27;20083;-60
2022/07/04 06:28:29;;;;;;;11.07;6.05;;;17.50;99.90;;;;;;5147368;27;20034;-60
2022/07/04 06:30:55;;;;;;;11.02;5.40;;;17.60;99.90;;;;;;5145347;27;20109;-60
2022/07/04 06:33:21;;;;;;;5.95;4.53;;;17.80;99.90;;;;;;5147084;27;20091;-60
2022/07/04 06:35:49;;;;;;;7.75;4.82;;;18.20;99.90;;;;;;5130608;27;20578;-60
2022/07/04 06:38:23;;;;;;;8.02;4.38;;;18.00;99.90;;;;;;5156466;27;20049;-59
2022/07/04 06:40:50;;;;;;;7.63;4.30;;;17.80;99.90;;;;;;5150350;27;20530;-60
2022/07/04 06:43:16;;;;;;;9.15;4.57;;;17.70;99.90;;;;;;5147311;27;20070;-60
2022/07/04 06:45:42;;;;;;;9.52;4.28;;;17.60;99.90;;;;;;5149053;27;20077;-60
2022/07/04 06:48:08;;;;;;;7.03;3.67;;;17.50;99.90;;;;;;5157126;27;20054;-60
2022/07/04 06:50:34;;;;;;;7.25;3.67;;;17.50;99.90;;;;;;5151165;27;20026;-60
2022/07/04 06:53:02;;;;;;;7.78;4.50;;;17.70;99.90;;;;;;5153569;27;20576;-61
2022/07/04 06:55:27;;;;;;;5.10;3.67;;;18.00;99.90;;;;;;5130032;27;20069;-60
2022/07/04 06:57:53;;;;;;;8.77;3.58;;;18.10;99.90;;;;;;5164130;27;20539;-60
2022/07/04 07:00:19;;;;;;;6.40;3.50;;;18.30;99.90;;;;;;5142854;27;20466;-60
2022/07/04 07:02:44;;;;;;;6.85;4.28;;;18.60;99.90;;;;;;5147521;27;20035;-60
2022/07/04 07:05:10;;;;;;;7.85;4.10;;;18.60;99.90;;;;;;5143180;27;20038;-60
2022/07/04 07:07:35;;;;;;;6.43;3.50;;;18.80;99.90;;;;;;5144965;27;20064;-61
2022/07/04 07:10:02;;;;;;;6.05;3.83;;;19.10;99.90;;;;;;5142436;27;20084;-60
2022/07/04 07:12:29;;;;;;;5.47;4.05;;;19.40;99.90;;;;;;5139836;27;20487;-61
2022/07/04 07:14:54;;;;;;;5.13;3.15;;;19.30;99.90;;;;;;5144090;27;20077;-61
2022/07/04 07:17:20;;;;;;;8.13;3.85;;;19.70;99.90;;;;;;5150478;27;20095;-62
2022/07/04 07:19:46;;;;;;;5.38;3.80;;;19.80;99.90;;;;;;5149800;27;20416;-60
2022/07/04 07:22:13;;;;;;;5.63;3.00;;;20.10;99.90;;;;;;5128693;27;20085;-61
2022/07/04 07:24:39;;;;;;;5.88;3.47;;;20.30;99.90;;;;;;5145154;27;20031;-62
2022/07/04 07:27:05;;;;;;;6.60;3.70;;;20.20;99.20;;;;;;5146942;27;20049;-60
2022/07/04 07:29:31;;;;;;;6.82;3.20;;;20.30;99.90;;;;;;5149399;27;20111;-61
2022/07/04 07:31:57;;;;;;;8.48;3.47;;;20.20;99.90;;;;;;5151024;27;20030;-61
2022/07/04 07:34:23;;;;;;;7.57;3.10;;;20.40;97.80;;;;;;5146568;27;20035;-62
2022/07/04 07:36:49;;;;;;;5.25;3.00;;;20.40;99.10;;;;;;5158176;27;20046;-60
2022/07/04 07:39:14;;;;;;;6.70;3.72;;;20.60;98.30;;;;;;5152683;27;20047;-62
2022/07/04 07:41:40;;;;;;;9.60;3.72;;;20.50;97.60;;;;;;5152703;27;20387;-60
2022/07/04 07:44:06;;;;;;;8.55;3.88;;;20.60;94.50;;;;;;5151189;27;20066;-61
2022/07/04 07:46:32;;;;;;;6.45;3.38;;;21.10;96.00;;;;;;5145124;27;20046;-61
2022/07/04 07:48:58;;;;;;;5.93;3.00;;;21.20;94.10;;;;;;5150060;27;20102;-61
2022/07/04 07:51:24;;;;;;;8.30;2.72;;;21.80;94.90;;;;;;5152055;27;20039;-61
2022/07/04 07:53:49;;;;;;;4.78;3.20;;;21.90;95.00;;;;;;5151771;27;20470;-60
2022/07/04 07:56:15;;;;;;;9.13;3.33;;;21.50;94.30;;;;;;5128645;27;20447;-61
2022/07/04 07:58:41;;;;;;;7.45;3.22;;;21.50;94.30;;;;;;5146190;27;20027;-61
2022/07/04 08:01:06;;;;;;;7.20;3.25;;;21.30;94.40;;;;;;5147214;27;20080;-61
2022/07/04 08:06:16;;;;;;;4.07;2.90;;;21.30;93.40;;;;;;5152218;27;20046;-61
2022/07/04 08:08:43;;;;;;;4.57;2.78;;;21.60;93.00;;;;;;5150311;27;20047;-60
2022/07/04 08:11:10;;;;;;;6.78;3.78;;;21.70;93.30;;;;;;5149554;27;20039;-61
2022/07/04 08:13:36;;;;;;;6.50;2.85;;;21.90;91.30;;;;;;5142569;27;20474;-62
2022/07/04 08:16:03;;;;;;;6.13;3.05;;;22.30;91.50;;;;;;5143112;27;20042;-61
2022/07/04 08:18:28;;;;;;;8.68;2.65;;;22.70;90.60;;;;;;5112524;27;20047;-62
2022/07/04 08:20:54;;;;;;;4.85;2.85;;;23.20;90.50;;;;;;5146347;27;20034;-63
2022/07/04 08:23:20;;;;;;;6.68;3.17;;;23.00;89.50;;;;;;5152959;27;20057;-61
2022/07/04 08:25:45;;;;;;;5.68;2.47;;;23.30;88.90;;;;;;5160064;27;20034;-62
2022/07/04 08:28:11;;;;;;;6.80;2.97;;;22.80;89.50;;;;;;5157106;27;20440;-62
2022/07/04 08:30:37;;;;;;;6.20;2.70;;;22.30;86.20;;;;;;5137813;27;20038;-61
2022/07/04 08:33:02;;;;;;;4.65;2.50;;;22.30;87.10;;;;;;5150254;27;20057;-62
2022/07/04 08:35:28;;;;;;;8.60;2.42;;;22.60;82.90;;;;;;5130297;27;20053;-61
2022/07/04 08:37:55;;;;;;;5.47;2.40;;;22.90;82.00;;;;;;5175710;27;20034;-61
2022/07/04 08:40:23;;;;;;;6.40;2.50;;;23.20;81.70;;;;;;5163784;27;20035;-60
2022/07/04 08:42:49;;;;;;;6.25;2.35;;;23.40;76.50;;;;;;5131531;27;20034;-61
2022/07/04 08:45:16;;;;;;;5.88;2.05;;;23.50;78.70;;;;;;5153543;27;20030;-61
2022/07/04 08:47:43;;;;;;;4.70;1.90;;;23.50;78.40;;;;;;5154646;27;20046;-62
2022/07/04 08:50:12;;;;;;;5.82;2.33;;;23.70;78.20;;;;;;5153506;27;20153;-61
2022/07/04 08:52:43;;;;;;;9.20;2.10;;;24.20;76.00;;;;;;5155150;27;20091;-62
2022/07/04 09:00:41;;;;;;;4.00;1.73;;;25.30;70.20;;;;;;5140741;27;20080;-61
2022/07/04 09:03:07;;;;;;;5.93;1.65;;;25.50;68.10;;;;;;5145683;27;20078;-62
2022/07/04 09:05:34;;;;;;;6.00;2.00;;;26.00;63.20;;;;;;5116579;27;20043;-61
2022/07/04 09:08:00;;;;;;;6.95;1.60;;;26.00;64.70;;;;;;5151017;27;20110;-62
2022/07/04 09:10:26;;;;;;;4.32;1.73;;;25.40;64.10;;;;;;5150626;27;20035;-61
2022/07/04 09:12:52;;;;;;;3.53;1.25;;;25.60;63.50;;;;;;5141787;27;20046;-62
2022/07/04 09:15:18;;;;;;;2.97;1.35;;;25.30;62.30;;;;;;5145833;27;20031;-62
2022/07/04 09:17:44;;;;;;;2.85;1.27;;;25.10;61.60;;;;;;5150403;27;20046;-61
2022/07/04 09:20:14;;;;;;;3.45;1.45;;;24.60;60.10;;;;;;5149209;27;20035;-62
2022/07/04 09:22:40;;;;;;;;;;;24.30;61.70;;;;;;5154471;27;20501;-61
2022/07/04 09:25:06;;;;;;;4.40;1.58;;;23.80;62.50;;;;;;5151922;27;19923;-62
2022/07/04 09:27:36;;;;;;;4.18;1.50;;;23.80;64.90;;;;;;5134700;27;20046;-61
2022/07/04 09:30:04;;;;;;;1.75;1.50;;;23.60;63.40;;;;;;5130426;27;20046;-62
2022/07/04 09:32:33;;;;;;;2.67;1.17;;;23.40;64.60;;;;;;5151344;27;20047;-62
2022/07/04 09:34:59;;;;;;;3.22;1.20;;;23.20;65.30;;;;;;5150275;27;20515;-61
2022/07/04 09:37:35;;;;;;;3.63;1.45;;;22.70;66.20;;;;;;5155557;27;20070;-62
2022/07/04 09:40:02;;;;;;;2.72;1.08;;;22.50;65.10;;;;;;5153518;27;20035;-62
2022/07/04 09:42:35;;;;;;;2.80;1.20;;;22.80;67.00;;;;;;5149746;27;20046;-62
2022/07/04 09:45:06;;;;;;;2.53;1.10;;;23.20;65.50;;;;;;5130718;27;20058;-61
2022/07/04 09:47:31;;;;;;;2.35;1.40;;;23.10;65.30;;;;;;5151592;27;20066;-62
2022/07/04 09:50:08;;;;;;;3.13;1.38;;;22.50;66.40;;;;;;5116276;27;20490;-63
2022/07/04 09:52:53;;;;;;;3.28;1.65;;;22.50;65.80;;;;;;5150497;27;20031;-61
2022/07/04 09:55:29;;;;;;;2.40;1.30;;;23.80;61.20;;;;;;5115046;27;20062;-61
2022/07/04 09:57:57;;;;;;;3.13;1.25;;;24.80;59.60;;;;;;5145271;27;20039;-61
2022/07/04 10:00:29;;;;;;;2.67;1.15;;;25.80;58.60;;;;;;5151537;27;20038;-62
2022/07/04 10:02:55;;;;;;;3.47;1.50;;;27.10;54.50;;;;;;5150156;27;20038;-61
2022/07/04 10:05:30;;;;;;;1.83;1.10;;;27.70;54.20;;;;;;5151783;27;20058;-62
2022/07/04 10:07:57;;;;;;;2.60;1.10;;;27.60;48.70;;;;;;5150515;27;20847;-62
2022/07/04 10:10:33;;;;;;;1.92;1.05;;;27.00;52.70;;;;;;5150818;27;20042;-62
2022/07/04 10:13:07;;;;;;;2.58;1.13;;;27.50;52.20;;;;;;5150180;27;20026;-62
2022/07/04 10:15:37;;;;;;;1.80;0.90;;;26.50;47.60;;;;;;5146950;27;20035;-62
2022/07/04 10:18:03;;;;;;;2.67;1.13;;;25.40;52.30;;;;;;5149310;27;20043;-63
2022/07/04 10:20:29;;;;;;;3.05;1.00;;;25.70;52.70;;;;;;5130392;27;20046;-62
2022/07/04 10:22:56;;;;;;;1.75;0.88;;;26.50;52.20;;;;;;5153773;27;20034;-62
2022/07/04 10:25:22;;;;;;;1.40;0.95;;;28.20;50.40;;;;;;5132060;27;20083;-62
2022/07/04 10:27:50;;;;;;;2.03;0.85;;;28.00;48.80;;;;;;5153853;27;20578;-63
2022/07/04 10:30:24;;;;;;;1.45;1.02;;;27.70;49.40;;;;;;5147488;27;20065;-63
2022/07/04 10:32:51;;;;;;;3.75;0.90;;;28.20;48.60;;;;;;5150545;27;20042;-62
2022/07/04 10:35:37;;;;;;;1.35;1.00;;;27.90;47.60;;;;;;5148578;27;20042;-62
2022/07/04 10:38:09;;;;;;;1.88;1.10;;;28.40;48.30;;;;;;5151152;27;20121;-62
2022/07/04 10:40:42;;;;;;;2.38;1.10;;;27.60;45.60;;;;;;5140554;27;20698;-62
2022/07/04 10:43:42;;;;;;;1.98;0.75;;;27.50;47.40;;;;;;5146605;27;20038;-63
2022/07/04 10:46:14;;;;;;;;;;;28.30;46.30;;;;;;5151929;27;20049;-62
2022/07/04 10:48:50;;;;;;;1.42;0.90;;;27.30;44.80;;;;;;5124545;27;19922;-62
2022/07/04 10:51:22;;;;;;;3.30;1.10;;;26.30;47.40;;;;;;5151282;27;20034;-62
2022/07/04 10:54:02;;;;;;;2.08;1.15;;;25.30;49.30;;;;;;5153158;27;20067;-61
2022/07/04 10:56:28;;;;;;;;;;;24.70;49.60;;;;;;5154687;27;20046;-62
2022/07/04 10:58:57;;;;;;;2.25;1.17;;;24.60;49.80;;;;;;5148036;27;19983;-62
2022/07/04 11:01:23;;;;;;;2.87;1.20;;;24.90;50.70;;;;;;5149660;27;20038;-63
2022/07/04 11:03:50;;;;;;;1.00;0.77;;;25.50;50.40;;;;;;5152322;27;20035;-63
2022/07/04 11:06:42;;;;;;;2.50;0.98;;;25.50;50.40;;;;;;5149458;27;20087;-61
2022/07/04 11:09:23;;;;;;;4.13;1.13;;;24.70;48.30;;;;;;5152075;27;20039;-61
2022/07/04 11:11:49;;;;;;;1.98;1.02;;;24.30;50.90;;;;;;5150354;27;20039;-63
2022/07/04 11:14:36;;;;;;;2.50;1.17;;;24.20;52.80;;;;;;5151036;27;20496;-63
2022/07/04 11:17:04;;;;;;;3.60;1.30;;;24.00;53.10;;;;;;5153052;27;20046;-62
2022/07/04 11:19:29;;;;;;;3.00;1.13;;;24.00;53.40;;;;;;5160744;27;20083;-62
2022/07/04 11:21:56;;;;;;;2.95;1.70;;;24.00;54.20;;;;;;5150446;27;20027;-62
2022/07/04 11:24:23;;;;;;;3.17;1.10;;;23.90;54.20;;;;;;5148727;27;20041;-62
2022/07/04 11:26:48;;;;;;;2.35;1.15;;;23.80;54.50;;;;;;5151082;27;20074;-62
2022/07/04 11:29:15;;;;;;;2.63;1.10;;;23.90;55.00;;;;;;5152209;27;20658;-63
2022/07/04 11:31:43;;;;;;;2.92;1.20;;;23.90;55.40;;;;;;5144010;27;21270;-62
2022/07/04 11:34:09;;;;;;;2.85;1.42;;;23.90;54.50;;;;;;5146919;27;20104;-63
2022/07/04 11:36:35;;;;;;;3.72;1.35;;;23.80;55.10;;;;;;5160744;27;20061;-62
2022/07/04 11:39:04;;;;;;;2.25;1.13;;;24.10;55.10;;;;;;5169252;27;20057;-62
2022/07/04 11:47:21;;;;;;;2.00;0.90;;;24.50;54.30;;;;;;5153009;27;20043;-62
2022/07/04 11:49:51;;;;;;;2.10;1.20;;;24.20;54.60;;;;;;5110301;27;20324;-63
2022/07/04 11:52:21;;;;;;;2.03;0.90;;;24.10;55.10;;;;;;5143216;27;20039;-61
2022/07/04 11:54:47;;;;;;;1.50;1.37;;;24.00;54.60;;;;;;5147324;27;20133;-62
2022/07/04 11:57:24;;;;;;;2.05;1.17;;;23.80;55.00;;;;;;5153505;27;20043;-61
2022/07/04 11:59:59;;;;;;;1.80;1.10;;;23.80;54.40;;;;;;5149219;27;20034;-63
2022/07/04 12:02:26;;;;;;;1.00;0.90;;;23.80;55.30;;;;;;5147297;27;20038;-63
2022/07/04 12:04:51;;;;;;;2.00;1.05;;;24.00;54.20;;;;;;5147662;27;20034;-63
2022/07/04 12:07:19;;;;;;;3.05;0.90;;;24.00;54.10;;;;;;5152294;27;20120;-63
2022/07/04 12:09:47;;;;;;;2.10;1.02;;;24.40;54.10;;;;;;5150870;27;20061;-63
2022/07/04 12:12:14;;;;;;;2.33;1.15;;;24.40;53.90;;;;;;5132469;27;20046;-62
2022/07/04 12:14:55;;;;;;;1.20;0.80;;;24.40;53.30;;;;;;5149935;27;20538;-63
2022/07/04 12:17:21;;;;;;;0.88;0.75;;;25.00;52.40;;;;;;5150164;27;20042;-63
2022/07/04 12:19:58;;;;;;;1.58;1.10;;;26.20;50.40;;;;;;5151093;27;20079;-63
2022/07/04 12:22:36;;;;;;;2.33;0.98;;;25.40;48.80;;;;;;5151658;27;20080;-62
2022/07/04 12:25:04;;;;;;;2.65;1.17;;;25.90;48.30;;;;;;5150629;27;20085;-63
2022/07/04 12:27:30;;;;;;;1.10;0.60;;;26.70;47.70;;;;;;5151635;27;20043;-62
2022/07/04 12:29:57;;;;;;;3.08;1.27;;;28.50;46.30;;;;;;5146686;27;20521;-62
2022/07/04 12:32:23;;;;;;;2.95;1.13;;;29.40;43.80;;;;;;5148192;27;20034;-63
2022/07/04 12:34:49;;;;;;;2.83;1.00;;;30.40;42.40;;;;;;5151422;27;20030;-64
2022/07/04 12:37:16;;;;;;;2.58;0.80;;;31.50;40.90;;;;;;5152017;27;20038;-62
2022/07/04 12:39:44;;;;;;;1.30;1.20;;;32.20;38.80;;;;;;5150640;27;20122;-63
2022/07/04 12:42:15;;;;;;;1.30;1.00;;;30.20;38.80;;;;;;5145812;27;20031;-63
2022/07/04 12:44:42;;;;;;;2.10;0.95;;;30.70;40.00;;;;;;5149980;27;20035;-63
2022/07/04 12:47:10;;;;;;;2.40;0.80;;;31.10;40.60;;;;;;5152267;27;20039;-62
2022/07/04 12:49:36;;;;;;;1.80;1.05;;;31.70;38.50;;;;;;5152012;27;20050;-64
2022/07/04 12:52:10;;;;;;;2.90;0.90;;;30.50;39.50;;;;;;5144777;27;20528;-64
2022/07/04 12:54:36;;;;;;;2.92;0.98;;;31.20;38.40;;;;;;5148730;27;20129;-64
2022/07/04 12:57:05;;;;;;;2.50;0.82;;;32.10;37.90;;;;;;5150425;27;20055;-63
2022/07/04 12:59:30;;;;;;;1.58;0.90;;;33.50;36.50;;;;;;5128595;27;20039;-63
2022/07/04 13:01:56;;;;;;;1.52;0.95;;;31.50;36.60;;;;;;5124215;27;20042;-62
2022/07/04 13:04:21;;;;;;;3.13;1.08;;;30.60;37.70;;;;;;5127094;27;20035;-64